sensor_id;sensor_type;location;lat;lon;timestamp;pressure;altitude;pressure_sealevel;temperature;humidity
47716;BME280;33476;50.984;3.538;2023-07-16T00:00:51;100917.34;;;20.68;49.75
47716;BME280;33476;50.984;3.538;2023-07-16T00:03:17;100914.69;;;20.68;49.75
47716;BME280;33476;50.984;3.538;2023-07-16T00:05:42;100924.06;;;20.63;49.94
47716;BME280;33476;50.984;3.538;2023-07-16T00:08:07;100929.59;;;20.60;50.27
47716;BME280;33476;50.984;3.538;2023-07-16T00:10:36;100927.91;;;20.49;50.59
47716;BME280;33476;50.984;3.538;2023-07-16T00:13:05;100928.88;;;20.48;50.62
47716;BME280;33476;50.984;3.538;2023-07-16T00:15:30;100932.81;;;20.54;50.42
47716;BME280;33476;50.984;3.538;2023-07-16T00:17:55;100925.25;;;20.49;50.82
47716;BME280;33476;50.984;3.538;2023-07-16T00:20:21;100921.91;;;20.47;50.88
47716;BME280;33476;50.984;3.538;2023-07-16T00:22:48;100933.63;;;20.44;51.05
47716;BME280;33476;50.984;3.538;2023-07-16T00:25:14;100924.22;;;20.40;51.41
47716;BME280;33476;50.984;3.538;2023-07-16T00:27:39;100927.16;;;20.37;51.36
47716;BME280;33476;50.984;3.538;2023-07-16T00:30:05;100922.53;;;20.39;51.32
47716;BME280;33476;50.984;3.538;2023-07-16T00:32:30;100927.00;;;20.39;51.53
47716;BME280;33476;50.984;3.538;2023-07-16T00:34:56;100934.59;;;20.43;51.36
47716;BME280;33476;50.984;3.538;2023-07-16T00:37:21;100930.84;;;20.46;51.48
47716;BME280;33476;50.984;3.538;2023-07-16T00:39:46;100931.69;;;20.46;51.32
47716;BME280;33476;50.984;3.538;2023-07-16T00:42:12;100933.16;;;20.39;51.58
47716;BME280;33476;50.984;3.538;2023-07-16T00:44:37;100929.66;;;20.39;51.58
47716;BME280;33476;50.984;3.538;2023-07-16T00:47:03;100929.22;;;20.34;51.51
47716;BME280;33476;50.984;3.538;2023-07-16T00:49:29;100934.38;;;20.35;51.25
47716;BME280;33476;50.984;3.538;2023-07-16T00:51:54;100934.00;;;20.40;51.17
47716;BME280;33476;50.984;3.538;2023-07-16T00:54:20;100943.50;;;20.42;50.84
47716;BME280;33476;50.984;3.538;2023-07-16T00:56:46;100943.91;;;20.38;50.85
47716;BME280;33476;50.984;3.538;2023-07-16T00:59:11;100944.03;;;20.36;50.82
47716;BME280;33476;50.984;3.538;2023-07-16T01:01:38;100947.78;;;20.34;50.66
47716;BME280;33476;50.984;3.538;2023-07-16T01:04:04;100948.63;;;20.34;50.36
47716;BME280;33476;50.984;3.538;2023-07-16T01:06:43;100955.31;;;20.29;50.30
47716;BME280;33476;50.984;3.538;2023-07-16T01:09:16;100955.44;;;20.27;50.19
47716;BME280;33476;50.984;3.538;2023-07-16T01:11:43;100947.47;;;20.27;50.04
47716;BME280;33476;50.984;3.538;2023-07-16T01:14:17;100954.72;;;20.25;49.83
47716;BME280;33476;50.984;3.538;2023-07-16T01:16:43;100951.00;;;20.28;49.27
47716;BME280;33476;50.984;3.538;2023-07-16T01:19:09;100948.03;;;20.21;48.72
47716;BME280;33476;50.984;3.538;2023-07-16T01:30:02;100948.28;;;20.18;47.41
47716;BME280;33476;50.984;3.538;2023-07-16T01:32:30;100952.03;;;20.15;47.57
47716;BME280;33476;50.984;3.538;2023-07-16T01:34:56;100952.34;;;20.22;47.23
47716;BME280;33476;50.984;3.538;2023-07-16T01:37:22;100952.66;;;20.29;47.04
47716;BME280;33476;50.984;3.538;2023-07-16T01:39:47;100954.06;;;20.33;46.84
47716;BME280;33476;50.984;3.538;2023-07-16T01:42:12;100959.50;;;20.31;47.03
47716;BME280;33476;50.984;3.538;2023-07-16T01:44:38;100966.22;;;20.35;47.13
47716;BME280;33476;50.984;3.538;2023-07-16T01:47:10;100971.41;;;20.37;47.24
47716;BME280;33476;50.984;3.538;2023-07-16T01:49:36;100964.44;;;20.36;47.36
47716;BME280;33476;50.984;3.538;2023-07-16T01:52:02;100960.34;;;20.32;47.30
47716;BME280;33476;50.984;3.538;2023-07-16T01:54:28;100963.13;;;20.30;47.27
47716;BME280;33476;50.984;3.538;2023-07-16T01:56:53;100967.75;;;20.28;47.49
47716;BME280;33476;50.984;3.538;2023-07-16T01:59:19;100974.41;;;20.23;47.62
47716;BME280;33476;50.984;3.538;2023-07-16T02:01:44;100974.00;;;20.27;47.27
47716;BME280;33476;50.984;3.538;2023-07-16T02:04:09;100967.00;;;20.26;47.18
47716;BME280;33476;50.984;3.538;2023-07-16T02:06:35;100968.97;;;20.24;47.03
47716;BME280;33476;50.984;3.538;2023-07-16T02:09:00;100980.94;;;20.18;47.33
47716;BME280;33476;50.984;3.538;2023-07-16T02:11:25;100984.84;;;20.14;47.49
47716;BME280;33476;50.984;3.538;2023-07-16T02:13:51;100990.00;;;20.16;47.26
47716;BME280;33476;50.984;3.538;2023-07-16T02:16:16;100987.94;;;20.19;47.17
47716;BME280;33476;50.984;3.538;2023-07-16T02:18:41;100988.31;;;20.15;47.00
47716;BME280;33476;50.984;3.538;2023-07-16T02:21:07;100992.78;;;20.14;47.01
47716;BME280;33476;50.984;3.538;2023-07-16T02:23:32;100993.75;;;20.13;46.81
47716;BME280;33476;50.984;3.538;2023-07-16T02:25:57;100996.13;;;20.16;46.86
47716;BME280;33476;50.984;3.538;2023-07-16T02:28:23;100984.84;;;20.14;46.63
47716;BME280;33476;50.984;3.538;2023-07-16T02:30:49;100988.97;;;20.07;46.75
47716;BME280;33476;50.984;3.538;2023-07-16T02:33:15;100996.66;;;20.10;46.78
47716;BME280;33476;50.984;3.538;2023-07-16T02:35:46;100997.91;;;20.06;46.76
47716;BME280;33476;50.984;3.538;2023-07-16T02:38:11;100998.59;;;20.08;46.55
47716;BME280;33476;50.984;3.538;2023-07-16T02:40:42;100984.31;;;20.00;46.65
47716;BME280;33476;50.984;3.538;2023-07-16T02:43:07;100988.66;;;20.01;46.65
47716;BME280;33476;50.984;3.538;2023-07-16T02:45:33;100997.44;;;20.01;46.66
47716;BME280;33476;50.984;3.538;2023-07-16T02:47:58;101004.13;;;19.96;46.56
47716;BME280;33476;50.984;3.538;2023-07-16T02:50:24;101009.53;;;19.94;46.66
47716;BME280;33476;50.984;3.538;2023-07-16T02:52:49;101010.78;;;19.90;46.65
47716;BME280;33476;50.984;3.538;2023-07-16T02:55:14;101018.84;;;19.88;46.56
47716;BME280;33476;50.984;3.538;2023-07-16T02:57:40;101019.09;;;19.85;46.63
47716;BME280;33476;50.984;3.538;2023-07-16T03:00:05;101014.75;;;19.84;46.43
47716;BME280;33476;50.984;3.538;2023-07-16T03:02:31;101009.47;;;19.84;46.44
47716;BME280;33476;50.984;3.538;2023-07-16T03:04:56;101021.50;;;19.88;46.42
47716;BME280;33476;50.984;3.538;2023-07-16T03:07:22;101012.72;;;19.88;46.21
47716;BME280;33476;50.984;3.538;2023-07-16T03:09:47;101014.75;;;19.84;46.35
47716;BME280;33476;50.984;3.538;2023-07-16T03:12:12;101016.72;;;19.82;46.63
47716;BME280;33476;50.984;3.538;2023-07-16T03:14:38;101025.13;;;19.87;46.31
47716;BME280;33476;50.984;3.538;2023-07-16T03:17:03;101020.25;;;19.92;46.30
47716;BME280;33476;50.984;3.538;2023-07-16T03:19:29;101021.72;;;19.97;46.33
47716;BME280;33476;50.984;3.538;2023-07-16T03:21:54;101030.63;;;19.96;46.19
47716;BME280;33476;50.984;3.538;2023-07-16T03:24:19;101034.00;;;19.98;46.41
47716;BME280;33476;50.984;3.538;2023-07-16T03:26:45;101031.19;;;19.99;46.30
47716;BME280;33476;50.984;3.538;2023-07-16T03:29:10;101028.69;;;19.98;46.42
47716;BME280;33476;50.984;3.538;2023-07-16T03:31:36;101028.75;;;19.86;46.58
47716;BME280;33476;50.984;3.538;2023-07-16T03:34:01;101034.16;;;19.85;46.76
47716;BME280;33476;50.984;3.538;2023-07-16T03:36:27;101032.75;;;19.81;46.95
47716;BME280;33476;50.984;3.538;2023-07-16T03:38:52;101034.09;;;19.75;46.92
47716;BME280;33476;50.984;3.538;2023-07-16T03:41:17;101043.00;;;19.74;47.22
47716;BME280;33476;50.984;3.538;2023-07-16T03:43:42;101046.50;;;19.75;47.12
47716;BME280;33476;50.984;3.538;2023-07-16T03:46:08;101058.91;;;19.74;47.23
47716;BME280;33476;50.984;3.538;2023-07-16T03:48:34;101055.78;;;19.69;47.41
47716;BME280;33476;50.984;3.538;2023-07-16T03:51:00;101060.50;;;19.66;47.55
47716;BME280;33476;50.984;3.538;2023-07-16T03:53:25;101043.91;;;19.63;47.67
47716;BME280;33476;50.984;3.538;2023-07-16T03:55:51;101051.16;;;19.61;47.78
47716;BME280;33476;50.984;3.538;2023-07-16T03:58:16;101055.00;;;19.57;47.78
47716;BME280;33476;50.984;3.538;2023-07-16T04:00:41;101059.31;;;19.58;48.04
47716;BME280;33476;50.984;3.538;2023-07-16T04:03:07;101056.06;;;19.55;48.12
47716;BME280;33476;50.984;3.538;2023-07-16T04:05:32;101060.41;;;19.56;48.27
47716;BME280;33476;50.984;3.538;2023-07-16T04:07:57;101061.84;;;19.60;48.34
47716;BME280;33476;50.984;3.538;2023-07-16T04:10:23;101084.84;;;19.59;48.34
47716;BME280;33476;50.984;3.538;2023-07-16T04:12:48;101074.00;;;19.51;48.54
47716;BME280;33476;50.984;3.538;2023-07-16T04:15:13;101075.09;;;19.49;48.49
47716;BME280;33476;50.984;3.538;2023-07-16T04:17:39;101085.97;;;19.46;48.80
47716;BME280;33476;50.984;3.538;2023-07-16T04:20:04;101072.31;;;19.50;48.79
47716;BME280;33476;50.984;3.538;2023-07-16T04:22:31;101085.22;;;19.55;48.62
47716;BME280;33476;50.984;3.538;2023-07-16T04:24:56;101077.50;;;19.52;48.78
47716;BME280;33476;50.984;3.538;2023-07-16T04:27:22;101077.75;;;19.49;48.68
47716;BME280;33476;50.984;3.538;2023-07-16T04:29:47;101091.59;;;19.52;48.70
47716;BME280;33476;50.984;3.538;2023-07-16T04:32:12;101076.22;;;19.46;48.92
47716;BME280;33476;50.984;3.538;2023-07-16T04:34:38;101077.75;;;19.49;49.15
47716;BME280;33476;50.984;3.538;2023-07-16T04:37:03;101087.78;;;19.45;49.16
47716;BME280;33476;50.984;3.538;2023-07-16T04:39:29;101084.38;;;19.43;49.29
47716;BME280;33476;50.984;3.538;2023-07-16T04:41:54;101086.19;;;19.43;49.06
47716;BME280;33476;50.984;3.538;2023-07-16T04:44:19;101084.38;;;19.43;49.15
47716;BME280;33476;50.984;3.538;2023-07-16T04:46:44;101078.72;;;19.48;49.18
47716;BME280;33476;50.984;3.538;2023-07-16T04:49:10;101071.50;;;19.50;49.21
47716;BME280;33476;50.984;3.538;2023-07-16T04:51:35;101089.06;;;19.51;49.25
47716;BME280;33476;50.984;3.538;2023-07-16T04:54:01;101090.03;;;19.50;49.19
47716;BME280;33476;50.984;3.538;2023-07-16T04:56:26;101087.88;;;19.55;49.38
47716;BME280;33476;50.984;3.538;2023-07-16T04:58:51;101089.31;;;19.59;49.17
47716;BME280;33476;50.984;3.538;2023-07-16T05:01:17;101090.41;;;19.56;49.43
47716;BME280;33476;50.984;3.538;2023-07-16T05:03:42;101095.59;;;19.58;49.51
47716;BME280;33476;50.984;3.538;2023-07-16T05:06:07;101087.97;;;19.64;49.51
47716;BME280;33476;50.984;3.538;2023-07-16T05:08:33;101094.25;;;19.63;49.56
47716;BME280;33476;50.984;3.538;2023-07-16T05:10:58;101084.00;;;19.59;49.60
47716;BME280;33476;50.984;3.538;2023-07-16T05:13:24;101096.19;;;19.61;49.62
47716;BME280;33476;50.984;3.538;2023-07-16T05:15:49;101084.63;;;19.62;49.68
47716;BME280;33476;50.984;3.538;2023-07-16T05:18:16;101096.50;;;19.68;49.47
47716;BME280;33476;50.984;3.538;2023-07-16T05:20:41;101098.66;;;19.74;49.57
47716;BME280;33476;50.984;3.538;2023-07-16T05:23:06;101096.16;;;19.73;49.77
47716;BME280;33476;50.984;3.538;2023-07-16T05:25:32;101101.06;;;19.77;49.66
47716;BME280;33476;50.984;3.538;2023-07-16T05:27:57;101114.91;;;19.81;49.57
47716;BME280;33476;50.984;3.538;2023-07-16T05:30:22;101114.22;;;19.79;49.70
47716;BME280;33476;50.984;3.538;2023-07-16T05:32:48;101114.44;;;19.76;49.92
47716;BME280;33476;50.984;3.538;2023-07-16T05:35:13;101126.13;;;19.73;49.88
47716;BME280;33476;50.984;3.538;2023-07-16T05:37:39;101121.69;;;19.74;49.88
47716;BME280;33476;50.984;3.538;2023-07-16T05:40:04;101116.50;;;19.72;50.10
47716;BME280;33476;50.984;3.538;2023-07-16T05:42:30;101141.34;;;19.71;50.28
47716;BME280;33476;50.984;3.538;2023-07-16T05:44:56;101140.59;;;19.69;50.42
47716;BME280;33476;50.984;3.538;2023-07-16T05:47:21;101138.56;;;19.73;50.27
47716;BME280;33476;50.984;3.538;2023-07-16T05:49:47;101153.13;;;19.78;50.26
47716;BME280;33476;50.984;3.538;2023-07-16T05:52:12;101156.84;;;19.87;50.15
47716;BME280;33476;50.984;3.538;2023-07-16T05:54:38;101152.19;;;20.00;50.00
47716;BME280;33476;50.984;3.538;2023-07-16T05:57:04;101155.31;;;20.05;49.49
47716;BME280;33476;50.984;3.538;2023-07-16T05:59:29;101161.66;;;20.14;49.73
47716;BME280;33476;50.984;3.538;2023-07-16T06:01:54;101154.28;;;20.17;49.37
47716;BME280;33476;50.984;3.538;2023-07-16T06:04:23;101162.25;;;20.17;49.51
47716;BME280;33476;50.984;3.538;2023-07-16T06:06:48;101163.81;;;20.20;49.40
47716;BME280;33476;50.984;3.538;2023-07-16T06:09:13;101171.25;;;20.26;49.43
47716;BME280;33476;50.984;3.538;2023-07-16T06:11:39;101175.22;;;20.32;49.50
47716;BME280;33476;50.984;3.538;2023-07-16T06:14:04;101164.81;;;20.40;49.27
47716;BME280;33476;50.984;3.538;2023-07-16T06:16:30;101170.59;;;20.45;49.38
47716;BME280;33476;50.984;3.538;2023-07-16T06:18:55;101162.84;;;20.42;49.36
47716;BME280;33476;50.984;3.538;2023-07-16T06:21:21;101165.31;;;20.45;49.29
47716;BME280;33476;50.984;3.538;2023-07-16T06:23:46;101179.13;;;20.48;49.17
47716;BME280;33476;50.984;3.538;2023-07-16T06:26:12;101175.66;;;20.48;49.35
47716;BME280;33476;50.984;3.538;2023-07-16T06:28:37;101182.50;;;20.51;49.43
47716;BME280;33476;50.984;3.538;2023-07-16T06:31:02;101185.34;;;20.59;49.39
47716;BME280;33476;50.984;3.538;2023-07-16T06:33:27;101178.97;;;20.61;49.26
47716;BME280;33476;50.984;3.538;2023-07-16T06:35:53;101176.03;;;20.64;49.46
47716;BME280;33476;50.984;3.538;2023-07-16T06:38:18;101174.69;;;20.70;49.32
47716;BME280;33476;50.984;3.538;2023-07-16T06:40:48;101188.25;;;20.76;49.38
47716;BME280;33476;50.984;3.538;2023-07-16T06:43:14;101179.72;;;20.94;49.09
47716;BME280;33476;50.984;3.538;2023-07-16T06:45:39;101182.66;;;21.00;48.86
47716;BME280;33476;50.984;3.538;2023-07-16T06:48:05;101189.00;;;21.09;49.21
47716;BME280;33476;50.984;3.538;2023-07-16T06:50:30;101187.66;;;21.24;48.85
47716;BME280;33476;50.984;3.538;2023-07-16T06:52:55;101190.13;;;21.27;48.67
47716;BME280;33476;50.984;3.538;2023-07-16T06:55:21;101197.94;;;21.29;48.44
47716;BME280;33476;50.984;3.538;2023-07-16T06:57:46;101202.13;;;21.31;48.65
47716;BME280;33476;50.984;3.538;2023-07-16T07:00:11;101197.84;;;21.40;48.63
47716;BME280;33476;50.984;3.538;2023-07-16T07:02:37;101192.94;;;21.36;48.38
47716;BME280;33476;50.984;3.538;2023-07-16T07:05:02;101204.50;;;21.35;48.67
47716;BME280;33476;50.984;3.538;2023-07-16T07:07:28;101211.41;;;21.37;48.62
47716;BME280;33476;50.984;3.538;2023-07-16T07:09:53;101227.22;;;21.39;48.39
47716;BME280;33476;50.984;3.538;2023-07-16T07:12:18;101214.81;;;21.58;48.28
47716;BME280;33476;50.984;3.538;2023-07-16T07:14:44;101205.34;;;21.75;47.73
47716;BME280;33476;50.984;3.538;2023-07-16T07:17:09;101211.94;;;21.81;47.68
47716;BME280;33476;50.984;3.538;2023-07-16T07:19:34;101212.66;;;21.83;47.65
47716;BME280;33476;50.984;3.538;2023-07-16T07:22:00;101207.06;;;21.86;47.65
47716;BME280;33476;50.984;3.538;2023-07-16T07:24:25;101218.03;;;22.02;47.77
47716;BME280;33476;50.984;3.538;2023-07-16T07:26:50;101210.38;;;22.19;47.55
47716;BME280;33476;50.984;3.538;2023-07-16T07:29:15;101225.63;;;22.36;47.14
47716;BME280;33476;50.984;3.538;2023-07-16T07:31:41;101219.03;;;22.50;46.83
47716;BME280;33476;50.984;3.538;2023-07-16T07:34:06;101230.66;;;22.58;46.58
47716;BME280;33476;50.984;3.538;2023-07-16T07:36:31;101220.28;;;22.65;46.35
47716;BME280;33476;50.984;3.538;2023-07-16T07:38:57;101220.88;;;22.68;46.31
47716;BME280;33476;50.984;3.538;2023-07-16T07:41:22;101234.16;;;22.59;46.38
47716;BME280;33476;50.984;3.538;2023-07-16T07:43:47;101233.34;;;22.68;46.78
47716;BME280;33476;50.984;3.538;2023-07-16T07:46:13;101220.00;;;22.78;46.22
47716;BME280;33476;50.984;3.538;2023-07-16T07:48:38;101230.22;;;22.92;46.20
47716;BME280;33476;50.984;3.538;2023-07-16T07:51:03;101225.88;;;23.01;46.36
47716;BME280;33476;50.984;3.538;2023-07-16T07:53:29;101228.06;;;23.15;45.89
47716;BME280;33476;50.984;3.538;2023-07-16T07:55:54;101236.03;;;23.24;45.45
47716;BME280;33476;50.984;3.538;2023-07-16T07:58:19;101236.69;;;23.36;45.10
47716;BME280;33476;50.984;3.538;2023-07-16T08:00:45;101234.31;;;23.33;44.94
47716;BME280;33476;50.984;3.538;2023-07-16T08:03:10;101241.66;;;23.21;45.39
47716;BME280;33476;50.984;3.538;2023-07-16T08:05:35;101245.50;;;23.09;45.61
47716;BME280;33476;50.984;3.538;2023-07-16T08:08:01;101243.13;;;22.96;45.96
47716;BME280;33476;50.984;3.538;2023-07-16T08:10:26;101245.78;;;22.96;45.66
47716;BME280;33476;50.984;3.538;2023-07-16T08:12:51;101237.66;;;22.88;45.67
47716;BME280;33476;50.984;3.538;2023-07-16T08:15:17;101260.94;;;22.96;45.70
47716;BME280;33476;50.984;3.538;2023-07-16T08:17:44;101249.00;;;22.90;45.82
47716;BME280;33476;50.984;3.538;2023-07-16T08:20:11;101249.47;;;22.86;45.90
47716;BME280;33476;50.984;3.538;2023-07-16T08:22:37;101254.75;;;22.95;45.94
47716;BME280;33476;50.984;3.538;2023-07-16T08:25:02;101252.63;;;22.99;45.46
47716;BME280;33476;50.984;3.538;2023-07-16T08:27:29;101260.09;;;22.95;45.56
47716;BME280;33476;50.984;3.538;2023-07-16T08:29:54;101270.00;;;22.84;45.84
47716;BME280;33476;50.984;3.538;2023-07-16T08:32:19;101262.91;;;22.84;45.71
47716;BME280;33476;50.984;3.538;2023-07-16T08:34:46;101263.84;;;22.83;45.82
47716;BME280;33476;50.984;3.538;2023-07-16T08:37:11;101262.91;;;22.84;45.68
47716;BME280;33476;50.984;3.538;2023-07-16T08:39:36;101260.50;;;22.81;46.04
47716;BME280;33476;50.984;3.538;2023-07-16T08:42:02;101274.50;;;22.83;46.23
47716;BME280;33476;50.984;3.538;2023-07-16T08:44:29;101284.91;;;22.77;46.08
47716;BME280;33476;50.984;3.538;2023-07-16T08:46:54;101275.78;;;22.50;46.53
47716;BME280;33476;50.984;3.538;2023-07-16T08:49:21;101282.66;;;22.43;46.77
47716;BME280;33476;50.984;3.538;2023-07-16T08:51:48;101285.88;;;22.37;46.90
47716;BME280;33476;50.984;3.538;2023-07-16T08:54:13;101287.84;;;22.35;46.85
47716;BME280;33476;50.984;3.538;2023-07-16T08:56:43;101287.94;;;22.33;46.86
47716;BME280;33476;50.984;3.538;2023-07-16T08:59:09;101287.09;;;22.33;46.59
47716;BME280;33476;50.984;3.538;2023-07-16T09:01:38;101294.97;;;22.34;46.76
47716;BME280;33476;50.984;3.538;2023-07-16T09:04:04;101305.47;;;22.26;47.01
47716;BME280;33476;50.984;3.538;2023-07-16T09:06:30;101320.28;;;22.19;47.22
47716;BME280;33476;50.984;3.538;2023-07-16T09:08:55;101328.75;;;22.03;50.12
47716;BME280;33476;50.984;3.538;2023-07-16T09:11:21;101340.84;;;21.77;51.10
47716;BME280;33476;50.984;3.538;2023-07-16T09:13:48;101343.13;;;21.61;51.36
47716;BME280;33476;50.984;3.538;2023-07-16T09:16:13;101337.94;;;21.59;51.54
47716;BME280;33476;50.984;3.538;2023-07-16T09:18:42;101345.97;;;21.69;51.77
47716;BME280;33476;50.984;3.538;2023-07-16T09:21:08;101350.88;;;21.73;51.27
47716;BME280;33476;50.984;3.538;2023-07-16T09:23:33;101357.75;;;21.76;50.89
47716;BME280;33476;50.984;3.538;2023-07-16T09:25:59;101349.66;;;21.77;50.42
47716;BME280;33476;50.984;3.538;2023-07-16T09:28:24;101347.91;;;21.97;50.01
47716;BME280;33476;50.984;3.538;2023-07-16T09:30:51;101338.75;;;22.11;48.14
47716;BME280;33476;50.984;3.538;2023-07-16T09:33:19;101350.25;;;22.21;47.06
47716;BME280;33476;50.984;3.538;2023-07-16T09:35:50;101356.88;;;22.36;46.71
47716;BME280;33476;50.984;3.538;2023-07-16T09:38:17;101350.06;;;22.73;46.71
47716;BME280;33476;50.984;3.538;2023-07-16T09:40:43;101363.44;;;23.02;45.74
47716;BME280;33476;50.984;3.538;2023-07-16T09:43:13;101353.03;;;23.18;45.79
47716;BME280;33476;50.984;3.538;2023-07-16T09:45:38;101354.13;;;23.35;45.28
47716;BME280;33476;50.984;3.538;2023-07-16T09:48:04;101357.03;;;23.51;44.78
47716;BME280;33476;50.984;3.538;2023-07-16T09:50:33;101358.84;;;23.70;44.58
47716;BME280;33476;50.984;3.538;2023-07-16T09:52:59;101359.59;;;23.90;43.81
47716;BME280;33476;50.984;3.538;2023-07-16T09:55:25;101372.88;;;24.09;43.57
47716;BME280;33476;50.984;3.538;2023-07-16T09:57:56;101377.47;;;24.17;43.23
47716;BME280;33476;50.984;3.538;2023-07-16T10:00:23;101379.38;;;24.24;42.75
47716;BME280;33476;50.984;3.538;2023-07-16T10:02:50;101378.88;;;24.11;42.91
47716;BME280;33476;50.984;3.538;2023-07-16T10:05:26;101381.72;;;24.09;43.45
47716;BME280;33476;50.984;3.538;2023-07-16T10:07:54;101393.91;;;24.12;43.33
47716;BME280;33476;50.984;3.538;2023-07-16T10:10:20;101388.31;;;24.05;44.11
47716;BME280;33476;50.984;3.538;2023-07-16T10:12:56;101379.72;;;24.12;44.00
47716;BME280;33476;50.984;3.538;2023-07-16T10:15:29;101382.59;;;24.00;44.44
47716;BME280;33476;50.984;3.538;2023-07-16T10:17:56;101373.59;;;24.01;44.88
47716;BME280;33476;50.984;3.538;2023-07-16T10:20:37;101369.09;;;24.02;44.35
47716;BME280;33476;50.984;3.538;2023-07-16T10:23:12;101374.78;;;24.17;43.98
47716;BME280;33476;50.984;3.538;2023-07-16T10:25:38;101388.94;;;24.27;43.25
47716;BME280;33476;50.984;3.538;2023-07-16T10:28:04;101375.56;;;24.36;42.91
47716;BME280;33476;50.984;3.538;2023-07-16T10:30:30;101384.25;;;24.38;42.54
47716;BME280;33476;50.984;3.538;2023-07-16T10:32:55;101383.50;;;24.46;42.53
47716;BME280;33476;50.984;3.538;2023-07-16T10:35:21;101369.16;;;24.65;42.35
47716;BME280;33476;50.984;3.538;2023-07-16T10:37:46;101388.94;;;24.90;42.16
47716;BME280;33476;50.984;3.538;2023-07-16T10:40:13;101384.31;;;25.10;41.72
47716;BME280;33476;50.984;3.538;2023-07-16T10:42:41;101380.66;;;25.11;41.70
47716;BME280;33476;50.984;3.538;2023-07-16T10:45:08;101383.16;;;25.12;41.45
47716;BME280;33476;50.984;3.538;2023-07-16T10:47:36;101379.88;;;25.18;41.16
47716;BME280;33476;50.984;3.538;2023-07-16T10:50:09;101376.81;;;25.13;41.16
47716;BME280;33476;50.984;3.538;2023-07-16T10:52:38;101377.97;;;25.11;41.14
47716;BME280;33476;50.984;3.538;2023-07-16T10:55:04;101384.81;;;25.31;41.25
47716;BME280;33476;50.984;3.538;2023-07-16T10:57:29;101375.91;;;25.48;40.39
47716;BME280;33476;50.984;3.538;2023-07-16T10:59:57;101387.09;;;25.70;39.60
47716;BME280;33476;50.984;3.538;2023-07-16T11:02:24;101389.75;;;25.70;39.41
47716;BME280;33476;50.984;3.538;2023-07-16T11:04:51;101377.13;;;25.80;40.38
47716;BME280;33476;50.984;3.538;2023-07-16T11:07:21;101376.47;;;26.12;40.07
47716;BME280;33476;50.984;3.538;2023-07-16T11:09:51;101394.00;;;26.41;39.38
47716;BME280;33476;50.984;3.538;2023-07-16T11:12:23;101386.94;;;26.40;39.20
47716;BME280;33476;50.984;3.538;2023-07-16T11:14:51;101388.00;;;26.13;38.64
47716;BME280;33476;50.984;3.538;2023-07-16T11:17:17;101380.34;;;25.84;39.02
47716;BME280;33476;50.984;3.538;2023-07-16T11:19:47;101389.25;;;25.66;39.14
47716;BME280;33476;50.984;3.538;2023-07-16T11:22:14;101391.88;;;25.58;39.45
47716;BME280;33476;50.984;3.538;2023-07-16T11:24:44;101385.94;;;25.46;39.83
47716;BME280;33476;50.984;3.538;2023-07-16T11:27:36;101395.66;;;25.30;40.61
47716;BME280;33476;50.984;3.538;2023-07-16T11:30:01;101388.53;;;25.38;42.64
47716;BME280;33476;50.984;3.538;2023-07-16T11:32:36;101393.91;;;25.38;44.70
47716;BME280;33476;50.984;3.538;2023-07-16T11:35:04;101382.00;;;25.33;45.51
47716;BME280;33476;50.984;3.538;2023-07-16T11:37:34;101383.06;;;25.22;44.39
47716;BME280;33476;50.984;3.538;2023-07-16T11:42:33;101384.00;;;25.13;43.32
47716;BME280;33476;50.984;3.538;2023-07-16T11:44:58;101385.41;;;25.17;42.71
47716;BME280;33476;50.984;3.538;2023-07-16T11:47:25;101378.66;;;25.13;42.39
47716;BME280;33476;50.984;3.538;2023-07-16T11:49:51;101379.81;;;25.10;42.32
47716;BME280;33476;50.984;3.538;2023-07-16T11:52:24;101389.50;;;25.11;42.10
47716;BME280;33476;50.984;3.538;2023-07-16T11:54:51;101384.84;;;25.13;41.54
47716;BME280;33476;50.984;3.538;2023-07-16T11:57:17;101392.88;;;25.13;40.90
47716;BME280;33476;50.984;3.538;2023-07-16T11:59:42;101404.63;;;25.20;41.08
47716;BME280;33476;50.984;3.538;2023-07-16T12:02:07;101398.41;;;25.38;40.48
47716;BME280;33476;50.984;3.538;2023-07-16T12:04:33;101401.59;;;25.59;39.03
47716;BME280;33476;50.984;3.538;2023-07-16T12:06:58;101394.16;;;25.71;38.87
47716;BME280;33476;50.984;3.538;2023-07-16T12:09:24;101397.75;;;25.88;38.81
47716;BME280;33476;50.984;3.538;2023-07-16T12:11:49;101391.81;;;26.02;37.71
47716;BME280;33476;50.984;3.538;2023-07-16T12:14:14;101386.94;;;25.97;37.91
47716;BME280;33476;50.984;3.538;2023-07-16T12:16:40;101385.25;;;25.96;37.64
47716;BME280;33476;50.984;3.538;2023-07-16T12:19:07;101387.25;;;25.94;37.75
47716;BME280;33476;50.984;3.538;2023-07-16T12:21:32;101393.63;;;25.93;38.02
47716;BME280;33476;50.984;3.538;2023-07-16T12:23:58;101379.84;;;25.88;37.61
47716;BME280;33476;50.984;3.538;2023-07-16T12:26:23;101386.13;;;26.05;37.88
47716;BME280;33476;50.984;3.538;2023-07-16T12:28:48;101389.72;;;26.22;37.17
47716;BME280;33476;50.984;3.538;2023-07-16T12:31:14;101386.38;;;26.20;37.11
47716;BME280;33476;50.984;3.538;2023-07-16T12:33:41;101385.53;;;26.19;37.29
47716;BME280;33476;50.984;3.538;2023-07-16T12:36:06;101388.03;;;26.21;37.42
47716;BME280;33476;50.984;3.538;2023-07-16T12:38:32;101396.41;;;26.18;36.93
47716;BME280;33476;50.984;3.538;2023-07-16T12:40:57;101392.72;;;26.19;37.00
47716;BME280;33476;50.984;3.538;2023-07-16T12:43:22;101388.19;;;26.19;36.12
47716;BME280;33476;50.984;3.538;2023-07-16T12:45:48;101392.03;;;26.09;36.54
47716;BME280;33476;50.984;3.538;2023-07-16T12:48:13;101398.63;;;25.96;36.40
47716;BME280;33476;50.984;3.538;2023-07-16T12:50:38;101405.28;;;25.84;36.60
47716;BME280;33476;50.984;3.538;2023-07-16T12:53:04;101415.63;;;25.61;36.73
47716;BME280;33476;50.984;3.538;2023-07-16T12:55:29;101412.00;;;25.44;36.36